Ogunquit, ME (03907)

10:17 AM EST on February 09, 2016 (GMT -0500)
Footbridge Beach | | Change Station
CLOSE
Current Station
Personal Weather Station
Location: Wells, ME
Elevation: 10 ft
Nearby Weather Stations

Elev 10 ft 43.26 °N, 70.59 °W | Updated 9 minutes ago

Partly Cloudy
Partly Cloudy
25.5 °F
Feels Like 26 °F
N
1.1
Wind Variable Wind from SW

Today
High -- | Low -- °F
--% Chance of Precip.
Yesterday
High -- | Low -- °F
Precip. -- in
Pressure 29.72 in
Visibility 10.0 miles
Clouds Mostly Cloudy 11000 ft
Windchill 26 °F
Dew Point 17 °F
Humidity 69%
Rainfall 0.00 in
Snow Depth Not available.
6:49 AM 5:04 PM
New Moon, 1% visible
METAR KSFM 091515Z AUTO 36003KT 10SM BKN110 M07/M12 A2972 RMK AO1
Pressure 29.72 in
Visibility 10.0 miles
Clouds Mostly Cloudy 11000 ft
Windchill 26 °F
Dew Point 17 °F
Humidity 69%
Rainfall 0.00 in
Snow Depth Not available.
6:49 AM 5:04 PM
New Moon, 1% visible
METAR KSFM 091515Z AUTO 36003KT 10SM BKN110 M07/M12 A2972 RMK AO1

10-Day Weather Forecast

Almanac

Astronomy

Feb. 09, 2016 Rise Set
Actual Time
Civil Twilight
Nautical Twilight
Astronomical Twilight
Moon
Length of Visible Light
Length of Day
Tomorrow will be .
, % of the Moon is Illuminated

Today's Extremes

State Highs State Lows

Community

WunderPhotos

Upload Photos

1,891,619 photos uploaded!

WunderBlog® & News

Nearby

Air Quality

  Air Quality AQ Index Pollutant
Not available.

Snow Depth

Station Depth Elevation

Earthquake Activity

City Distance Mag. Time & Date
Minimum magnitude displayed is 2.5.

Coastal Water Temperatures

Place Temperature

Stations

Nearby Weather Stations

Station Location Temp. Windchill Dew Point Humidity Wind Precip. Elev Updated Type
                   

Watches & Warnings

Coastal Flood Warning
Issued: 3:23 AM EST Feb. 9, 2016 – National Weather Service

... Coastal Flood Warning remains in effect from 9 am this morning
until 1 PM EST this afternoon...

* location... .coastal York... coastal Cumberland... and coastal
Rockingham counties.

* Impacts... splash-over or minor coastal flooding may occur
around the time of the late morning high tide today.

* Timing... today between 9 am and 1 PM.

Precautionary/preparedness actions...

A coastal Flood Warning means that flooding is occurring or
imminent. Coastal residents in the warned area should be alert
for rising water... and take appropriate action to protect life
and property.



Es